createdAt,value
2018-01-15T00:00:28.535Z,100.00
2018-01-15T00:01:34.206Z,100.00
2018-01-15T00:02:40.121Z,100.00
2018-01-15T00:03:46.079Z,100.00
2018-01-15T00:04:52.077Z,100.00
2018-01-15T00:05:58.033Z,100.00
2018-01-15T00:07:03.918Z,100.00
2018-01-15T00:08:09.866Z,100.00
2018-01-15T00:09:15.846Z,100.00
2018-01-15T00:10:21.787Z,100.00
2018-01-15T00:11:27.726Z,100.00
2018-01-15T00:12:33.672Z,100.00
2018-01-15T00:13:39.592Z,100.00
2018-01-15T00:14:45.595Z,100.00
2018-01-15T00:15:51.497Z,100.00
2018-01-15T00:16:57.501Z,100.00
2018-01-15T00:18:03.430Z,100.00
2018-01-15T00:19:09.447Z,100.00
2018-01-15T00:20:15.377Z,100.00
2018-01-15T00:21:21.334Z,100.00
2018-01-15T00:22:27.327Z,100.00
2018-01-15T00:23:33.268Z,100.00
2018-01-15T00:24:39.229Z,100.00
2018-01-15T00:25:46.231Z,100.00
2018-01-15T00:26:51.205Z,100.00
2018-01-15T00:27:57.176Z,100.00
2018-01-15T00:29:03.255Z,100.00
2018-01-15T00:30:08.627Z,100.00
2018-01-15T00:31:16.041Z,100.00
2018-01-15T00:32:21.092Z,100.00
2018-01-15T00:33:26.967Z,100.00
2018-01-15T00:34:32.954Z,100.00
2018-01-15T00:35:38.899Z,100.00
2018-01-15T00:36:44.941Z,100.00
2018-01-15T00:37:50.903Z,100.00
2018-01-15T00:38:56.827Z,100.00
2018-01-15T00:40:02.772Z,100.00
2018-01-15T00:41:08.844Z,100.00
2018-01-15T00:42:14.815Z,100.00
2018-01-15T00:43:20.816Z,100.00
2018-01-15T00:44:26.722Z,100.00
2018-01-15T00:45:32.678Z,100.00
2018-01-15T00:46:38.689Z,100.00
2018-01-15T00:47:44.639Z,100.00
2018-01-15T00:48:50.627Z,100.00
2018-01-15T00:49:56.576Z,100.00
2018-01-15T00:51:02.556Z,100.00
2018-01-15T00:52:08.591Z,100.00
2018-01-15T00:53:14.642Z,100.00
2018-01-15T00:54:21.520Z,100.00
2018-01-15T00:55:26.545Z,100.00
2018-01-15T00:56:32.504Z,100.00
2018-01-15T00:57:38.460Z,100.00
2018-01-15T00:58:44.450Z,100.00
2018-01-15T00:59:50.409Z,100.00
2018-01-15T01:00:56.404Z,100.00
2018-01-15T01:02:02.418Z,100.00
2018-01-15T01:03:08.401Z,100.00
2018-01-15T01:04:14.515Z,100.00
2018-01-15T01:05:20.364Z,100.00
2018-01-15T01:06:26.421Z,100.00
2018-01-15T01:07:32.401Z,100.00
2018-01-15T01:08:38.432Z,100.00
2018-01-15T01:09:44.330Z,100.00
2018-01-15T01:10:50.278Z,100.00
2018-01-15T01:11:56.297Z,100.00
2018-01-15T01:13:02.299Z,100.00
2018-01-15T01:14:08.346Z,100.00
2018-01-15T01:15:14.305Z,100.00
2018-01-15T01:16:20.277Z,100.00
2018-01-15T01:17:26.290Z,100.00
2018-01-15T01:18:32.280Z,100.00
2018-01-15T01:19:38.254Z,100.00
2018-01-15T01:20:44.268Z,100.00
2018-01-15T01:21:50.204Z,100.00
2018-01-15T01:22:56.184Z,100.00
2018-01-15T01:24:02.254Z,100.00
2018-01-15T01:25:08.169Z,100.00
2018-01-15T01:26:14.227Z,100.00
2018-01-15T01:27:21.216Z,100.00
2018-01-15T01:28:26.195Z,100.00
2018-01-15T01:29:32.169Z,100.00
2018-01-15T01:30:38.132Z,100.00
2018-01-15T01:31:44.222Z,100.00
2018-01-15T01:32:50.130Z,100.00
2018-01-15T01:33:56.277Z,100.00
2018-01-15T01:35:02.091Z,100.00
2018-01-15T01:36:08.104Z,100.00
2018-01-15T01:38:21.120Z,100.00
2018-01-15T01:39:26.594Z,100.00
2018-01-15T01:40:32.060Z,100.00
2018-01-15T01:41:38.143Z,100.00
2018-01-15T01:42:44.083Z,100.00
2018-01-15T01:43:50.066Z,100.00
2018-01-15T01:44:55.582Z,100.00
2018-01-15T01:46:02.078Z,100.00
2018-01-15T01:48:14.030Z,100.00
2018-01-15T01:49:19.610Z,100.00
2018-01-15T01:50:26.050Z,100.00
2018-01-15T01:51:32.048Z,100.00
2018-01-15T01:52:39.145Z,100.00
2018-01-15T01:53:44.019Z,100.00
2018-01-15T01:54:50.019Z,100.00
2018-01-15T01:57:01.984Z,100.00
2018-01-15T01:58:08.498Z,100.00
2018-01-15T01:59:14.314Z,100.00
2018-01-15T02:00:20.040Z,100.00
2018-01-15T02:01:26.250Z,100.00
2018-01-15T02:02:33.192Z,100.00
2018-01-15T02:03:38.287Z,100.00
2018-01-15T02:04:44.026Z,100.00
2018-01-15T02:05:50.018Z,100.00
2018-01-15T02:06:56.000Z,100.00
2018-01-15T02:08:02.037Z,100.00
2018-01-15T02:09:07.944Z,100.00
2018-01-15T02:10:14.023Z,100.00
2018-01-15T02:11:19.944Z,100.00
2018-01-15T02:12:25.992Z,100.00
2018-01-15T02:13:31.922Z,100.00
2018-01-15T02:14:38.206Z,100.00
2018-01-15T02:15:44.030Z,100.00
2018-01-15T02:16:50.987Z,100.00
2018-01-15T02:17:56.043Z,100.00
2018-01-15T02:19:01.967Z,100.00
2018-01-15T02:20:07.523Z,100.00
2018-01-15T02:21:14.925Z,100.00
2018-01-15T02:22:20.086Z,100.00
2018-01-15T02:23:25.897Z,100.00
2018-01-15T02:24:32.943Z,100.00
2018-01-15T02:26:43.913Z,100.00
2018-01-15T02:27:49.411Z,100.00
2018-01-15T02:28:55.813Z,100.00
2018-01-15T02:30:01.848Z,100.00
2018-01-15T02:31:07.886Z,100.00
2018-01-15T02:32:13.788Z,100.00
2018-01-15T02:33:19.815Z,100.00
2018-01-15T02:34:25.856Z,100.00
2018-01-15T02:35:31.785Z,100.00
2018-01-15T02:36:37.732Z,100.00
2018-01-15T02:37:43.743Z,100.00
2018-01-15T02:38:49.706Z,100.00
2018-01-15T02:41:01.676Z,100.00
2018-01-15T02:42:07.645Z,100.00
2018-01-15T02:43:14.642Z,100.00
2018-01-15T02:44:19.673Z,100.00
2018-01-15T02:45:25.796Z,100.00
2018-01-15T02:46:31.604Z,100.00
2018-01-15T02:47:38.580Z,100.00
2018-01-15T02:48:43.570Z,100.00
2018-01-15T02:49:50.560Z,100.00
2018-01-15T02:50:55.544Z,100.00
2018-01-15T02:52:01.508Z,100.00
2018-01-15T02:53:07.018Z,100.00
2018-01-15T02:54:13.470Z,100.00
2018-01-15T02:55:19.450Z,100.00
2018-01-15T02:56:25.464Z,100.00
2018-01-15T02:57:31.428Z,100.00
2018-01-15T02:58:37.430Z,100.00
2018-01-15T02:59:44.453Z,100.00
2018-01-15T03:00:49.385Z,100.00
2018-01-15T03:01:55.340Z,100.00
2018-01-15T03:03:01.336Z,100.00
2018-01-15T03:04:07.355Z,100.00
2018-01-15T03:05:13.267Z,100.00
2018-01-15T03:06:19.329Z,100.00
2018-01-15T03:07:26.263Z,100.00
2018-01-15T03:08:31.222Z,100.00
2018-01-15T03:09:38.310Z,100.00
2018-01-15T03:10:43.209Z,100.00
2018-01-15T03:11:49.178Z,100.00
2018-01-15T03:12:56.150Z,100.00
2018-01-15T03:14:01.174Z,100.00
2018-01-15T03:15:07.092Z,100.00
2018-01-15T03:16:14.142Z,100.00
2018-01-15T03:17:19.145Z,100.00
2018-01-15T03:18:25.152Z,100.00
2018-01-15T03:19:31.283Z,100.00
2018-01-15T03:20:37.112Z,100.00
2018-01-15T03:21:43.036Z,100.00
2018-01-15T03:22:49.067Z,100.00
2018-01-15T03:23:54.971Z,100.00
2018-01-15T03:25:00.984Z,100.00
2018-01-15T03:26:06.964Z,100.00
2018-01-15T03:27:13.948Z,100.00
2018-01-15T03:28:18.920Z,100.00
2018-01-15T03:29:24.912Z,100.00
2018-01-15T03:30:31.905Z,100.00
2018-01-15T03:31:36.995Z,100.00
2018-01-15T03:32:42.935Z,100.00
2018-01-15T03:33:49.113Z,100.00
2018-01-15T03:34:54.863Z,100.00
2018-01-15T03:36:01.854Z,100.00
2018-01-15T03:37:06.972Z,100.00
2018-01-15T03:38:13.829Z,100.00
2018-01-15T03:39:18.899Z,100.00
2018-01-15T03:40:24.847Z,100.00
2018-01-15T03:41:32.161Z,100.00
2018-01-15T03:42:36.870Z,100.00
2018-01-15T03:43:42.835Z,100.00
2018-01-15T03:44:48.815Z,100.00
2018-01-15T03:45:54.847Z,100.00
2018-01-15T03:47:00.864Z,100.00
2018-01-15T03:48:06.815Z,100.00
2018-01-15T03:49:12.820Z,100.00
2018-01-15T03:50:18.844Z,100.00
2018-01-15T03:51:24.767Z,100.00
2018-01-15T03:52:30.844Z,100.00
2018-01-15T03:53:36.783Z,100.00
2018-01-15T03:54:42.819Z,100.00
2018-01-15T03:55:48.771Z,100.00
2018-01-15T03:56:54.799Z,100.00
2018-01-15T03:58:00.790Z,100.00
2018-01-15T03:59:06.774Z,100.00
2018-01-15T04:00:12.753Z,100.00
2018-01-15T04:01:20.086Z,100.00
2018-01-15T04:02:24.820Z,100.00
2018-01-15T04:03:30.803Z,100.00
2018-01-15T04:04:36.759Z,100.00
2018-01-15T04:05:42.804Z,100.00
2018-01-15T04:06:48.753Z,100.00
2018-01-15T04:07:54.832Z,100.00
2018-01-15T04:09:00.735Z,100.00
2018-01-15T04:10:06.776Z,100.00
2018-01-15T04:11:12.783Z,100.00
2018-01-15T04:12:18.764Z,100.00
2018-01-15T04:13:24.785Z,100.00
2018-01-15T04:14:30.796Z,100.00
2018-01-15T04:15:37.138Z,100.00
2018-01-15T04:16:42.772Z,100.00
2018-01-15T04:17:48.819Z,100.00
2018-01-15T04:18:54.771Z,100.00
2018-01-15T04:20:00.760Z,100.00
2018-01-15T04:21:06.754Z,100.00
2018-01-15T04:22:12.821Z,100.00
2018-01-15T04:23:18.899Z,100.00
2018-01-15T04:24:24.814Z,100.00
2018-01-15T04:25:30.771Z,100.00
2018-01-15T04:26:36.790Z,100.00
2018-01-15T04:27:42.765Z,100.00
2018-01-15T04:28:49.895Z,100.00
2018-01-15T04:29:54.823Z,100.00
2018-01-15T04:31:00.806Z,100.00
2018-01-15T04:32:06.776Z,100.00
2018-01-15T04:33:12.809Z,100.00
2018-01-15T04:34:18.885Z,100.00
2018-01-15T04:36:31.000Z,100.00
2018-01-15T04:37:36.831Z,100.00
2018-01-15T04:38:43.878Z,100.00
2018-01-15T04:39:48.817Z,100.00
2018-01-15T04:40:54.863Z,100.00
2018-01-15T04:42:00.874Z,100.00
2018-01-15T04:43:06.812Z,100.00
2018-01-15T04:44:12.877Z,100.00
2018-01-15T04:45:20.186Z,100.00
2018-01-15T04:46:24.890Z,100.00
2018-01-15T04:47:30.867Z,100.00
2018-01-15T04:48:36.967Z,100.00
2018-01-15T04:49:42.892Z,100.00
2018-01-15T04:50:48.923Z,100.00
2018-01-15T04:51:54.862Z,100.00
2018-01-15T04:53:00.872Z,100.00
2018-01-15T04:54:06.916Z,100.00
2018-01-15T04:55:13.867Z,100.00
2018-01-15T04:56:18.944Z,100.00
2018-01-15T04:57:24.915Z,100.00
2018-01-15T04:58:30.985Z,100.00
2018-01-15T04:59:37.983Z,100.00
2018-01-15T05:00:42.956Z,100.00
2018-01-15T05:01:50.094Z,100.00
2018-01-15T05:02:54.960Z,100.00
2018-01-15T05:04:01.048Z,100.00
2018-01-15T05:05:06.990Z,100.00
2018-01-15T05:06:14.019Z,100.00
2018-01-15T05:07:19.037Z,100.00
2018-01-15T05:08:25.038Z,100.00
2018-01-15T05:09:31.041Z,100.00
2018-01-15T05:10:37.156Z,100.00
2018-01-15T05:11:43.156Z,100.00
2018-01-15T05:12:49.138Z,100.00
2018-01-15T05:13:55.141Z,100.00
2018-01-15T05:15:00.592Z,100.00
2018-01-15T05:16:07.171Z,100.00
2018-01-15T05:17:13.146Z,100.00
2018-01-15T05:18:19.599Z,100.00
2018-01-15T05:19:25.259Z,100.00
2018-01-15T05:20:31.154Z,100.00
2018-01-15T05:21:37.186Z,100.00
2018-01-15T05:22:43.132Z,100.00
2018-01-15T05:23:49.146Z,100.00
2018-01-15T05:24:55.160Z,100.00
2018-01-15T05:26:00.679Z,100.00
2018-01-15T05:27:07.229Z,100.00
2018-01-15T05:28:13.191Z,100.00
2018-01-15T05:29:19.311Z,100.00
2018-01-15T05:30:25.200Z,100.00
2018-01-15T05:31:32.313Z,100.00
2018-01-15T05:32:37.228Z,100.00
2018-01-15T05:33:43.239Z,100.00
2018-01-15T05:34:49.262Z,100.00
2018-01-15T05:35:55.267Z,100.00
2018-01-15T05:37:01.249Z,100.00
2018-01-15T05:38:07.313Z,100.00
2018-01-15T05:39:13.298Z,100.00
2018-01-15T05:40:19.312Z,100.00
2018-01-15T05:41:25.282Z,100.00
2018-01-15T05:42:31.305Z,100.00
2018-01-15T05:43:37.350Z,100.00
2018-01-15T05:44:43.325Z,100.00
2018-01-15T05:45:49.343Z,100.00
2018-01-15T05:46:54.819Z,100.00
2018-01-15T05:48:01.323Z,100.00
2018-01-15T05:49:07.325Z,100.00
2018-01-15T05:50:13.379Z,100.00
2018-01-15T05:51:19.445Z,100.00
2018-01-15T05:52:25.372Z,100.00
2018-01-15T05:53:31.423Z,100.00
2018-01-15T05:54:38.465Z,100.00
2018-01-15T05:55:43.519Z,100.00
2018-01-15T05:56:49.471Z,100.00
2018-01-15T05:57:54.991Z,100.00
2018-01-15T05:59:01.511Z,100.00
2018-01-15T06:00:07.448Z,100.00
2018-01-15T06:01:13.640Z,100.00
2018-01-15T06:02:19.535Z,100.00
2018-01-15T06:03:25.527Z,100.00
2018-01-15T06:04:31.519Z,100.00
2018-01-15T06:05:37.527Z,100.00
2018-01-15T06:06:43.544Z,100.00
2018-01-15T06:07:49.660Z,100.00
2018-01-15T06:08:55.123Z,100.00
2018-01-15T06:10:02.959Z,100.00
2018-01-15T06:11:08.052Z,100.00
2018-01-15T06:12:13.740Z,100.00
2018-01-15T06:13:19.599Z,100.00
2018-01-15T06:14:26.676Z,100.00
2018-01-15T06:15:31.697Z,100.00
2018-01-15T06:16:37.724Z,100.00
2018-01-15T06:17:43.676Z,100.00
2018-01-15T06:18:49.749Z,100.00
2018-01-15T06:19:55.718Z,100.00
2018-01-15T06:21:01.985Z,100.00
2018-01-15T06:23:13.778Z,100.00
2018-01-15T06:24:19.748Z,100.00
2018-01-15T06:25:25.792Z,100.00
2018-01-15T06:26:31.901Z,100.00
2018-01-15T06:27:37.822Z,100.00
2018-01-15T06:28:43.857Z,100.00
2018-01-15T06:29:49.900Z,100.00
2018-01-15T06:30:55.927Z,100.00
2018-01-15T06:32:01.885Z,100.00
2018-01-15T06:33:09.012Z,100.00
2018-01-15T06:34:13.924Z,100.00
2018-01-15T06:35:20.052Z,100.00
2018-01-15T06:36:25.978Z,100.00
2018-01-15T06:37:32.128Z,100.00
2018-01-15T06:38:37.986Z,100.00
2018-01-15T06:39:43.989Z,100.00
2018-01-15T06:40:50.006Z,100.00
2018-01-15T06:41:56.051Z,100.00
2018-01-15T06:43:02.093Z,100.00
2018-01-15T06:44:08.066Z,100.00
2018-01-15T06:45:14.080Z,100.00
2018-01-15T06:46:20.099Z,100.00
2018-01-15T06:47:26.118Z,100.00
2018-01-15T06:48:32.117Z,100.00
2018-01-15T06:49:38.214Z,100.00
2018-01-15T06:50:44.170Z,100.00
2018-01-15T06:51:50.189Z,100.00
2018-01-15T06:52:57.308Z,100.00
2018-01-15T06:54:02.213Z,100.00
2018-01-15T06:56:14.294Z,100.00
2018-01-15T06:57:19.803Z,100.00
2018-01-15T06:58:26.329Z,100.00
2018-01-15T06:59:32.364Z,100.00
2018-01-15T07:00:38.304Z,100.00
2018-01-15T07:01:44.342Z,100.00
2018-01-15T07:02:50.410Z,100.00
2018-01-15T07:03:56.355Z,100.00
2018-01-15T07:05:02.363Z,100.00
2018-01-15T07:06:08.401Z,100.00
2018-01-15T07:07:14.449Z,100.00
2018-01-15T07:08:20.434Z,100.00
2018-01-15T07:09:26.467Z,100.00
2018-01-15T07:10:32.565Z,100.00
2018-01-15T07:11:38.497Z,100.00
2018-01-15T07:12:44.513Z,100.00
2018-01-15T07:13:50.564Z,100.00
2018-01-15T07:14:56.522Z,100.00
2018-01-15T07:16:02.567Z,100.00
2018-01-15T07:17:08.575Z,100.00
2018-01-15T07:18:14.630Z,100.00
2018-01-15T07:19:20.599Z,100.00
2018-01-15T07:20:26.661Z,100.00
2018-01-15T07:21:32.670Z,100.00
2018-01-15T07:22:38.857Z,100.00
2018-01-15T07:24:50.842Z,100.00
2018-01-15T07:25:56.552Z,100.00
2018-01-15T07:27:02.940Z,100.00
2018-01-15T07:28:08.807Z,100.00
2018-01-15T07:29:14.875Z,100.00
2018-01-15T07:30:20.884Z,100.00
2018-01-15T07:31:26.898Z,100.00
2018-01-15T07:32:32.932Z,100.00
2018-01-15T07:33:39.039Z,100.00
2018-01-15T07:34:45.985Z,100.00
2018-01-15T07:35:50.957Z,100.00
2018-01-15T07:36:57.022Z,100.00
2018-01-15T07:38:03.029Z,100.00
2018-01-15T07:40:15.253Z,100.00
2018-01-15T07:41:21.135Z,100.00
2018-01-15T07:42:27.235Z,100.00
2018-01-15T07:43:33.176Z,100.00
2018-01-15T07:44:39.208Z,100.00
2018-01-15T07:45:45.258Z,100.00
2018-01-15T07:46:51.211Z,100.00
2018-01-15T07:47:57.239Z,100.00
2018-01-15T07:49:03.368Z,100.00
2018-01-15T07:50:09.297Z,100.00
2018-01-15T07:53:27.631Z,100.00
2018-01-15T07:54:33.922Z,100.00
2018-01-15T07:55:39.899Z,100.00
2018-01-15T07:56:46.073Z,100.00
2018-01-15T07:57:51.610Z,100.00
2018-01-15T07:58:57.615Z,100.00
2018-01-15T08:00:03.628Z,100.00
2018-01-15T08:01:09.689Z,100.00
2018-01-15T08:02:15.674Z,100.00
2018-01-15T08:03:21.808Z,100.00
2018-01-15T08:04:27.936Z,100.00
2018-01-15T08:05:33.766Z,100.00
2018-01-15T08:06:39.875Z,100.00
2018-01-15T08:07:45.835Z,100.00
2018-01-15T08:08:51.961Z,100.00
2018-01-15T08:09:58.007Z,100.00
2018-01-15T08:11:03.992Z,100.00
2018-01-15T08:12:10.015Z,100.00
2018-01-15T08:13:16.035Z,100.00
2018-01-15T08:14:22.142Z,100.00
2018-01-15T08:15:28.107Z,100.00
2018-01-15T08:16:34.160Z,100.00
2018-01-15T08:17:40.176Z,100.00
2018-01-15T08:18:45.731Z,100.00
2018-01-15T08:19:52.289Z,100.00
2018-01-15T08:20:58.349Z,100.00
2018-01-15T08:22:04.394Z,100.00
2018-01-15T08:23:10.381Z,100.00
2018-01-15T08:24:16.498Z,100.00
2018-01-15T08:25:22.467Z,100.00
2018-01-15T08:26:28.579Z,100.00
2018-01-15T08:28:40.587Z,100.00
2018-01-15T08:30:52.730Z,100.00
2018-01-15T08:31:58.270Z,100.00
2018-01-15T08:33:04.925Z,100.00
2018-01-15T08:34:10.961Z,100.00
2018-01-15T08:35:16.929Z,100.00
2018-01-15T08:36:23.071Z,100.00
2018-01-15T08:37:29.015Z,100.00
2018-01-15T08:38:35.091Z,100.00
2018-01-15T08:39:41.175Z,100.00
2018-01-15T08:40:47.098Z,100.00
2018-01-15T08:41:53.236Z,100.00
2018-01-15T08:42:59.238Z,100.00
2018-01-15T08:44:05.264Z,100.00
2018-01-15T08:45:11.347Z,100.00
2018-01-15T08:46:17.377Z,100.00
2018-01-15T08:47:23.457Z,100.00
2018-01-15T08:48:29.536Z,100.00
2018-01-15T08:49:36.532Z,100.00
2018-01-15T08:50:41.713Z,100.00
2018-01-15T08:51:47.624Z,100.00
2018-01-15T08:52:53.751Z,100.00
2018-01-15T08:53:59.739Z,100.00
2018-01-15T08:55:05.808Z,100.00
2018-01-15T08:56:11.845Z,100.00
2018-01-15T08:57:17.958Z,100.00
2018-01-15T08:58:23.944Z,100.00
2018-01-15T08:59:30.071Z,100.00
2018-01-15T09:00:36.132Z,100.00
2018-01-15T09:01:42.139Z,100.00
2018-01-15T09:02:48.205Z,100.00
2018-01-15T09:03:54.286Z,100.00
2018-01-15T09:05:00.292Z,100.00
2018-01-15T09:06:06.374Z,100.00
2018-01-15T09:07:12.401Z,100.00
2018-01-15T09:08:18.456Z,100.00
2018-01-15T09:09:24.530Z,100.00
2018-01-15T09:10:30.584Z,100.00
2018-01-15T09:11:36.702Z,100.00
2018-01-15T09:12:42.261Z,100.00
2018-01-15T09:13:48.747Z,100.00
2018-01-15T09:14:54.923Z,100.00
2018-01-15T09:16:00.885Z,100.00
2018-01-15T09:17:06.937Z,100.00
2018-01-15T09:18:12.995Z,100.00
2018-01-15T09:19:19.146Z,100.00
2018-01-15T09:20:25.127Z,100.00
2018-01-15T09:21:31.187Z,100.00
2018-01-15T09:22:37.265Z,100.00
2018-01-15T09:23:42.745Z,100.00
2018-01-15T09:24:49.319Z,100.00
2018-01-15T09:25:55.373Z,100.00
2018-01-15T09:27:01.393Z,100.00
2018-01-15T09:28:07.496Z,100.00
2018-01-15T09:29:13.678Z,100.00
2018-01-15T09:30:19.574Z,100.00
2018-01-15T09:31:25.733Z,100.00
2018-01-15T09:32:31.730Z,100.00
2018-01-15T09:33:37.755Z,100.00
2018-01-15T09:34:43.847Z,100.00
2018-01-15T09:35:49.948Z,100.00
2018-01-15T09:36:56.009Z,100.00
2018-01-15T09:38:02.000Z,100.00
2018-01-15T09:39:08.055Z,100.00
2018-01-15T09:40:14.117Z,100.00
2018-01-15T09:41:20.377Z,100.00
2018-01-15T09:42:26.325Z,100.00
2018-01-15T09:43:32.347Z,100.00
2018-01-15T09:44:38.411Z,100.00
2018-01-15T09:45:43.992Z,100.00
2018-01-15T09:46:50.551Z,100.00
2018-01-15T09:47:56.559Z,100.00
2018-01-15T09:49:02.720Z,100.00
2018-01-15T09:50:08.806Z,100.00
2018-01-15T09:51:14.782Z,100.00
2018-01-15T09:52:20.888Z,100.00
2018-01-15T09:53:27.047Z,100.00
2018-01-15T09:54:33.100Z,100.00
2018-01-15T09:55:39.138Z,100.00
2018-01-15T09:56:45.209Z,100.00
2018-01-15T09:57:51.292Z,100.00
2018-01-15T09:58:57.389Z,100.00
2018-01-15T10:00:03.446Z,100.00
2018-01-15T10:01:09.540Z,100.00
2018-01-15T10:02:15.609Z,100.00
2018-01-15T10:03:21.689Z,100.00
2018-01-15T10:04:27.730Z,100.00
2018-01-15T10:05:33.835Z,100.00
2018-01-15T10:06:39.454Z,100.00
2018-01-15T10:07:46.005Z,100.00
2018-01-15T10:08:52.144Z,100.00
2018-01-15T10:11:04.221Z,100.00
2018-01-15T10:12:10.401Z,100.00
2018-01-15T10:13:16.688Z,100.00
2018-01-15T10:14:22.480Z,100.00
2018-01-15T10:15:28.559Z,100.00
2018-01-15T10:16:34.642Z,100.00
2018-01-15T10:17:40.281Z,100.00
2018-01-15T10:18:46.836Z,100.00
2018-01-15T10:19:52.937Z,100.00
2018-01-15T10:20:59.094Z,100.00
2018-01-15T10:23:11.206Z,98.72
2018-01-15T10:24:17.287Z,98.19
2018-01-15T10:25:23.447Z,97.13
2018-01-15T10:26:29.457Z,97.06
2018-01-15T10:27:35.591Z,98.41
2018-01-15T10:28:41.680Z,97.44
2018-01-15T10:29:47.807Z,97.15
2018-01-15T10:30:54.022Z,97.31
2018-01-15T10:31:59.980Z,96.18
2018-01-15T10:33:06.097Z,97.11
2018-01-15T10:34:12.175Z,97.24
2018-01-15T10:35:18.280Z,96.34
2018-01-15T10:36:24.385Z,94.70
2018-01-15T10:37:30.471Z,95.36
2018-01-15T10:38:36.586Z,94.75
2018-01-15T10:39:43.652Z,94.94
2018-01-15T10:40:48.734Z,92.94
2018-01-15T10:41:54.837Z,94.50
2018-01-15T10:43:00.931Z,93.55
2018-01-15T10:44:07.019Z,94.26
2018-01-15T10:45:13.133Z,94.17
2018-01-15T10:46:19.219Z,93.26
2018-01-15T10:47:25.303Z,93.60
2018-01-15T10:48:31.433Z,93.68
2018-01-15T10:49:37.471Z,93.84
2018-01-15T10:50:43.584Z,93.95
2018-01-15T10:51:49.669Z,93.43
2018-01-15T10:52:55.782Z,94.77
2018-01-15T10:54:01.902Z,95.45
2018-01-15T10:55:07.966Z,96.74
2018-01-15T10:56:14.138Z,96.32
2018-01-15T10:57:21.130Z,96.12
2018-01-15T10:58:26.284Z,95.74
2018-01-15T10:59:32.348Z,95.01
2018-01-15T11:00:38.401Z,94.75
2018-01-15T11:01:44.506Z,94.83
2018-01-15T11:02:50.579Z,94.55
2018-01-15T11:03:57.707Z,94.52
2018-01-15T11:05:02.842Z,93.73
2018-01-15T11:06:09.870Z,94.18
2018-01-15T11:07:14.984Z,93.91
2018-01-15T11:08:22.172Z,93.45
2018-01-15T11:09:27.160Z,94.79
2018-01-15T11:10:33.270Z,93.53
2018-01-15T11:11:39.409Z,95.17
2018-01-15T11:12:46.452Z,95.12
2018-01-15T11:13:51.568Z,96.01
2018-01-15T11:14:57.622Z,96.03
2018-01-15T11:16:03.700Z,95.54
2018-01-15T11:17:09.913Z,96.61
2018-01-15T11:18:15.907Z,96.12
2018-01-15T11:19:21.980Z,95.28
2018-01-15T11:20:28.038Z,94.76
2018-01-15T11:21:35.188Z,95.35
2018-01-15T11:22:39.722Z,96.38
2018-01-15T11:23:46.318Z,95.61
2018-01-15T11:24:52.466Z,97.38
2018-01-15T11:25:58.533Z,96.51
2018-01-15T11:27:04.558Z,96.71
2018-01-15T11:28:10.622Z,96.94
2018-01-15T11:29:16.839Z,97.05
2018-01-15T11:30:22.877Z,96.99
2018-01-15T11:31:28.864Z,96.76
2018-01-15T11:32:35.030Z,96.09
2018-01-15T11:33:40.545Z,95.93
2018-01-15T11:34:48.147Z,94.93
2018-01-15T11:35:53.322Z,94.41
2018-01-15T11:36:59.305Z,95.83
2018-01-15T11:38:05.404Z,96.34
2018-01-15T11:39:11.483Z,96.66
2018-01-15T11:40:17.576Z,97.66
2018-01-15T11:41:23.676Z,97.74
2018-01-15T11:42:29.820Z,98.12
2018-01-15T11:43:35.862Z,97.84
2018-01-15T11:44:41.887Z,99.69
2018-01-15T11:45:47.968Z,100.00
2018-01-15T11:46:54.040Z,100.00
2018-01-15T11:48:00.238Z,100.00
2018-01-15T11:49:06.293Z,100.00
2018-01-15T11:51:18.417Z,100.00
2018-01-15T11:52:24.504Z,100.00
2018-01-15T11:53:30.589Z,100.00
2018-01-15T11:54:36.721Z,100.00
2018-01-15T11:55:42.330Z,100.00
2018-01-15T11:56:48.999Z,100.00
2018-01-15T11:57:56.133Z,100.00
2018-01-15T11:59:01.120Z,100.00
2018-01-15T12:00:08.246Z,100.00
2018-01-15T12:01:13.305Z,100.00
2018-01-15T12:02:19.390Z,100.00
2018-01-15T12:03:25.439Z,100.00
2018-01-15T12:04:31.609Z,100.00
2018-01-15T12:05:37.676Z,100.00
2018-01-15T12:06:43.807Z,100.00
2018-01-15T12:07:49.874Z,100.00
2018-01-15T12:08:55.936Z,100.00
2018-01-15T12:10:02.035Z,100.00
2018-01-15T12:11:08.182Z,100.00
2018-01-15T12:12:14.334Z,100.00
2018-01-15T12:13:20.355Z,100.00
2018-01-15T12:14:26.434Z,100.00
2018-01-15T12:15:32.559Z,100.00
2018-01-15T12:16:38.177Z,100.00
2018-01-15T12:17:44.716Z,99.83
2018-01-15T12:18:50.785Z,100.00
2018-01-15T12:19:57.903Z,100.00
2018-01-15T12:21:03.048Z,97.89
2018-01-15T12:22:09.117Z,98.60
2018-01-15T12:23:15.209Z,99.10
2018-01-15T12:24:21.277Z,97.33
2018-01-15T12:25:27.461Z,97.93
2018-01-15T12:26:34.550Z,96.54
2018-01-15T12:27:39.634Z,96.78
2018-01-15T12:28:45.754Z,95.84
2018-01-15T12:29:51.828Z,97.09
2018-01-15T12:30:57.975Z,94.63
2018-01-15T12:32:04.053Z,94.68
2018-01-15T12:33:10.152Z,95.25
2018-01-15T12:34:16.326Z,95.64
2018-01-15T12:35:22.384Z,96.11
2018-01-15T12:36:28.556Z,97.06
2018-01-15T12:37:34.628Z,95.71
2018-01-15T12:38:40.261Z,95.53
2018-01-15T12:39:47.859Z,96.69
2018-01-15T12:40:52.978Z,93.52
2018-01-15T12:42:00.092Z,93.75
2018-01-15T12:43:05.217Z,94.29
2018-01-15T12:44:11.300Z,94.14
2018-01-15T12:45:17.442Z,95.72
2018-01-15T12:46:23.536Z,94.07
2018-01-15T12:47:29.622Z,93.91
2018-01-15T12:48:35.752Z,94.13
2018-01-15T12:49:42.386Z,94.76
2018-01-15T12:50:48.013Z,94.60
2018-01-15T12:51:54.083Z,95.00
2018-01-15T12:53:00.188Z,93.58
2018-01-15T12:54:06.344Z,94.60
2018-01-15T12:55:12.511Z,93.07
2018-01-15T12:56:18.620Z,92.15
2018-01-15T12:57:25.719Z,92.93
2018-01-15T12:58:30.833Z,92.93
2018-01-15T12:59:36.897Z,92.64
2018-01-15T13:00:42.587Z,91.13
2018-01-15T13:01:49.224Z,91.84
2018-01-15T13:02:55.311Z,89.61
2018-01-15T13:05:07.553Z,90.40
2018-01-15T13:06:13.661Z,90.45
2018-01-15T13:07:19.810Z,91.35
2018-01-15T13:08:26.919Z,91.05
2018-01-15T13:09:32.097Z,89.61
2018-01-15T13:10:38.219Z,89.26
2018-01-15T13:11:44.327Z,89.63
2018-01-15T13:12:50.491Z,90.29
2018-01-15T13:13:56.598Z,89.68
2018-01-15T13:15:02.739Z,87.75
2018-01-15T13:16:08.819Z,88.59
2018-01-15T13:17:15.005Z,89.41
2018-01-15T13:18:21.126Z,90.28
2018-01-15T13:19:27.240Z,88.44
2018-01-15T13:20:33.373Z,88.42
2018-01-15T13:21:39.510Z,89.45
2018-01-15T13:22:45.718Z,88.70
2018-01-15T13:23:51.777Z,88.87
2018-01-15T13:24:57.956Z,87.50
2018-01-15T13:26:04.054Z,86.91
2018-01-15T13:27:10.210Z,89.45
2018-01-15T13:28:17.323Z,88.31
2018-01-15T13:29:22.477Z,89.76
2018-01-15T13:30:28.603Z,88.15
2018-01-15T13:31:34.708Z,90.30
2018-01-15T13:32:40.383Z,89.61
2018-01-15T13:33:47.012Z,87.79
2018-01-15T13:34:53.116Z,88.64
2018-01-15T13:35:59.255Z,87.83
2018-01-15T13:37:05.399Z,88.79
2018-01-15T13:38:11.500Z,89.30
2018-01-15T13:39:17.691Z,90.33
2018-01-15T13:40:23.723Z,90.95
2018-01-15T13:41:30.010Z,91.26
2018-01-15T13:42:37.018Z,90.94
2018-01-15T13:43:42.156Z,91.29
2018-01-15T13:44:48.214Z,91.88
2018-01-15T13:45:54.327Z,90.92
2018-01-15T13:47:00.458Z,91.62
2018-01-15T13:48:06.624Z,92.15
2018-01-15T13:49:12.669Z,91.65
2018-01-15T13:50:18.777Z,92.37
2018-01-15T13:51:24.928Z,91.43
2018-01-15T13:52:31.141Z,92.46
2018-01-15T13:53:37.158Z,93.08
2018-01-15T13:54:43.243Z,92.59
2018-01-15T13:55:49.367Z,90.70
2018-01-15T13:56:55.567Z,92.51
2018-01-15T13:58:01.604Z,91.34
2018-01-15T13:59:07.688Z,90.98
2018-01-15T14:00:13.823Z,91.62
2018-01-15T14:01:19.945Z,91.47
2018-01-15T14:02:26.026Z,92.12
2018-01-15T14:03:32.198Z,91.96
2018-01-15T14:04:38.253Z,91.97
2018-01-15T14:05:43.906Z,90.71
2018-01-15T14:06:50.507Z,91.50
2018-01-15T14:07:57.097Z,92.37
2018-01-15T14:09:02.768Z,92.53